Latest Weather Observations for Meekatharra

IDW60801

Issued at 10:43 am WST Thursday 23 January 2020 (issued every 10 minutes, with the page automatically refreshed every 10 minutes)

About weather observations | Map of weather stations | Latest weather observations for WA | Other Formats
Station Details ID: 007045 Name: MEEKATHARRA AIRPORT Lat: -26.61 Lon: 118.54 Height: 517.0 m
Data from the previous 72 hours. | See also: Recent months at Meekatharra
Date/Time
WST
Temp
°C
App
Temp
°C
Dew
Point
°C
Rel
Hum
%
Delta-T
°C
Wind Press
QNH
hPa
Press
MSL
hPa
Rain since
9am
mm
Dir  Spd
km/h
Gust
km/h
Spd
kts
Gust
kts
23/10:30am 29.4 25.0 7.3 25 12.2 ESE 20 30 11 16 1015.1 1010.8 0.0
23/10:00am 28.2 23.4 7.4 27 11.4 ESE 22 33 12 18 1015.3 1011.0 0.0
23/09:30am 27.6 22.7 6.9 27 11.2 ESE 22 30 12 16 1015.5 1011.2 0.0
23/09:00am 27.0 21.9 7.5 29 10.7 SE 24 32 13 17 1015.5 1011.2 0.0
23/08:30am 26.0 19.6 7.1 30 10.2 SE 30 43 16 23 1015.3 1011.0 0.0
23/08:00am 25.4 19.0 7.1 31 9.8 SE 30 44 16 24 1015.3 1011.0 0.0
23/07:30am 25.1 18.7 6.8 31 9.8 SE 30 43 16 23 1015.2 1010.9 0.0
23/07:00am 24.5 18.8 6.7 32 9.5 SE 26 35 14 19 1015.0 1010.7 0.0
23/06:30am 24.0 19.6 6.7 33 9.2 SSE 19 26 10 14 1014.8 1010.5 0.0
23/06:00am 23.3 18.9 6.6 34 8.8 SSE 19 28 10 15 1014.5 1010.2 0.0
23/05:30am 23.1 18.5 6.4 34 8.8 SSE 20 26 11 14 1013.9 1009.6 0.0
23/05:00am 23.4 18.3 6.2 33 9.0 SSE 22 30 12 16 1013.7 1009.4 0.0
23/04:30am 23.7 19.0 6.0 32 9.3 SSE 20 30 11 16 1013.4 1009.1 0.0
23/04:00am 24.0 19.2 5.8 31 9.5 SSE 20 32 11 17 1013.1 1008.8 0.0
23/03:30am 24.2 19.4 5.5 30 9.7 SSE 20 33 11 18 1012.9 1008.6 0.0
23/03:00am 24.6 19.5 5.9 30 9.8 SSE 22 32 12 17 1012.6 1008.2 0.0
23/02:30am 25.0 19.5 5.7 29 10.1 SSE 24 37 13 20 1012.5 1008.1 0.0
23/02:00am 25.3 19.7 5.5 28 10.4 SSE 24 33 13 18 1012.5 1008.1 0.0
23/01:30am 25.5 20.3 5.7 28 10.4 SSE 22 35 12 19 1012.5 1008.1 0.0
23/01:00am 26.2 20.9 5.2 26 11.0 SSE 22 30 12 16 1012.6 1008.2 0.0
23/12:30am 26.6 21.7 5.0 25 11.3 S 20 26 11 14 1012.7 1008.4 0.0
23/12:00am 27.0 22.2 4.7 24 11.6 S 19 26 10 14 1012.9 1008.6 0.0
 
Date/Time
WST
Temp
°C
App
Temp
°C
Dew
Point
°C
Rel
Hum
%
Delta-T
°C
Wind Press
QNH
hPa
Press
MSL
hPa
Rain since
9am
mm
Dir  Spd
km/h
Gust
km/h
Spd
kts
Gust
kts
22/11:30pm 27.5 22.6 3.9 22 12.2 S 19 30 10 16 1012.8 1008.5 0.0
22/11:00pm 27.9 22.3 3.6 21 12.5 S 22 32 12 17 1012.9 1008.6 0.0
22/10:30pm 28.3 23.2 3.9 21 12.6 S 20 28 11 15 1012.9 1008.6 0.0
22/10:00pm 28.9 23.5 4.4 21 12.8 S 22 30 12 16 1012.9 1008.6 0.0
22/09:30pm 29.2 23.8 4.6 21 13.0 S 22 33 12 18 1012.7 1008.4 0.0
22/09:00pm 29.7 24.3 6.4 23 12.7 S 24 32 13 17 1012.6 1008.2 0.0
22/08:30pm 30.3 25.0 6.9 23 12.9 S 24 32 13 17 1012.1 1007.8 0.0
22/08:00pm 30.7 26.1 6.6 22 13.2 S 20 28 11 15 1011.8 1007.5 0.0
22/07:30pm 31.2 26.0 5.6 20 13.9 S 22 30 12 16 1011.4 1007.1 0.0
22/07:00pm 31.8 26.3 6.1 20 14.1 SSW 24 33 13 18 1011.0 1006.7 0.0
22/06:30pm 32.7 27.7 4.5 17 15.1 SSW 20 30 11 16 1010.5 1006.1 0.0
22/06:00pm 33.3 27.3 3.2 15 15.9 SSW 24 32 13 17 1010.1 1005.8 0.0
22/05:30pm 34.5 29.0 4.1 15 16.4 SSW 22 30 12 16 1010.0 1005.7 0.0
22/05:00pm 34.3 29.2 4.0 15 16.3 SSW 20 33 11 18 1009.9 1005.6 0.0
22/04:30pm 34.5 29.6 4.1 15 16.4 SSW 19 26 10 14 1009.9 1005.6 0.0
22/04:00pm 33.9 30.0 5.4 17 15.6 SSW 15 22 8 12 1010.1 1005.8 0.0
22/03:30pm 33.8 29.7 6.2 18 15.3 SSW 17 33 9 18 1010.4 1006.0 0.0
22/03:00pm 33.7 29.4 5.3 17 15.5 S 17 44 9 24 1010.6 1006.2 0.0
22/02:30pm 33.7 29.6 6.1 18 15.3 SW 17 33 9 18 1010.9 1006.6 0.0
22/02:00pm 32.7 28.3 4.5 17 15.1 SSE 17 28 9 15 1011.2 1006.9 0.0
22/01:30pm 33.9 29.4 6.3 18 15.3 SSW 19 26 10 14 1011.5 1007.2 0.0
22/01:00pm 31.9 27.4 6.9 21 13.9 SSW 20 32 11 17 1011.8 1007.5 0.0
22/12:30pm 32.0 27.8 7.6 22 13.7 SSW 19 30 10 16 1012.2 1007.9 0.0
22/12:00pm 31.5 27.8 7.9 23 13.3 SSE 17 28 9 15 1012.6 1008.2 0.0
22/11:30am 30.4 26.5 8.7 26 12.3 SSE 19 30 10 16 1012.9 1008.6 0.0
22/11:00am 28.8 25.7 9.0 29 11.2 S 15 24 8 13 1013.1 1008.8 0.0
22/10:30am 28.7 25.1 9.9 31 10.8 SSE 19 26 10 14 1013.3 1009.0 0.0
22/10:00am 27.5 24.0 10.2 34 9.9 S 19 28 10 15 1013.5 1009.2 0.0
22/09:30am 26.7 23.4 10.8 37 9.2 SSE 19 28 10 15 1013.8 1009.5 0.0
22/09:00am 26.1 22.5 10.7 38 8.8 SSE 20 32 11 17 1013.6 1009.3 0.0
22/08:30am 25.2 20.9 10.6 40 8.3 S 24 32 13 17 1013.5 1009.2 0.0
22/08:00am 24.2 20.5 10.1 41 7.9 S 20 26 11 14 1013.4 1009.1 0.0
22/07:30am 23.6 20.0 10.6 44 7.4 S 20 30 11 16 1013.4 1009.1 0.0
22/07:00am 22.6 18.2 10.4 46 6.9 S 24 32 13 17 1013.2 1008.9 0.0
22/06:30am 22.0 18.0 10.5 48 6.5 S 22 30 12 16 1012.9 1008.6 0.0
22/06:00am 21.9 18.3 10.4 48 6.4 S 20 30 11 16 1012.5 1008.1 0.0
22/05:30am 22.2 17.4 10.4 47 6.6 S 26 35 14 19 1011.9 1007.6 0.0
22/05:00am 22.9 18.4 10.0 44 7.2 S 24 33 13 18 1011.5 1007.2 0.0
22/04:30am 23.5 19.5 9.1 40 7.9 S 20 28 11 15 1011.3 1007.0 0.0
22/04:00am 24.3 19.0 8.3 36 8.8 S 26 37 14 20 1010.8 1006.4 0.0
22/03:30am 24.8 20.4 9.1 37 8.7 S 22 33 12 18 1010.6 1006.2 0.0
22/03:00am 25.4 19.9 9.3 36 9.0 S 28 39 15 21 1010.2 1005.9 0.0
22/02:30am 25.9 21.2 9.3 35 9.3 S 24 33 13 18 1010.2 1005.9 0.0
22/02:00am 26.6 21.3 8.6 32 10.0 S 26 39 14 21 1010.1 1005.8 0.0
22/01:30am 27.2 22.8 7.6 29 10.7 S 20 30 11 16 1010.1 1005.8 0.0
22/01:00am 27.8 23.2 6.6 26 11.5 SSW 20 26 11 14 1010.2 1005.9 0.0
22/12:30am 28.5 23.4 6.0 24 12.1 S 22 33 12 18 1010.2 1005.9 0.0
22/12:00am 29.0 23.8 3.8 20 13.1 SSW 20 28 11 15 1010.2 1005.9 0.0
 
Date/Time
WST
Temp
°C
App
Temp
°C
Dew
Point
°C
Rel
Hum
%
Delta-T
°C
Wind Press
QNH
hPa
Press
MSL
hPa
Rain since
9am
mm
Dir  Spd
km/h
Gust
km/h
Spd
kts
Gust
kts
21/11:30pm 29.6 23.4 2.0 17 13.9 SSW 24 32 13 17 1010.2 1005.9 0.0
21/11:00pm 30.2 24.3 1.6 16 14.4 SSW 22 33 12 18 1010.2 1005.9 0.0
21/10:30pm 30.8 24.7 3.0 17 14.4 SSW 24 35 13 19 1010.1 1005.8 0.0
21/10:00pm 31.3 26.2 4.2 18 14.4 SSW 20 28 11 15 1009.9 1005.6 0.0
21/09:30pm 32.0 26.0 5.5 19 14.4 SSW 26 37 14 20 1009.8 1005.5 0.0
21/09:00pm 32.6 27.3 6.7 20 14.4 SSW 24 32 13 17 1009.5 1005.2 0.0
21/08:30pm 33.6 28.5 7.6 20 14.7 SSW 24 35 13 19 1009.2 1004.9 0.0
21/08:00pm 34.2 29.4 7.3 19 15.2 SW 22 30 12 16 1008.8 1004.4 0.0
21/07:30pm 34.7 29.6 7.7 19 15.4 SW 24 32 13 17 1008.6 1004.2 0.0
21/07:00pm 35.2 30.4 8.9 20 15.3 SW 24 33 13 18 1008.4 1004.0 0.0
21/06:30pm 36.1 30.5 8.8 19 15.9 SW 28 39 15 21 1007.9 1003.6 0.0
21/06:16pm 36.4 30.9 9.1 19 16.0 SW 28 46 15 25 1007.7 1003.4 0.0
21/06:00pm 37.1 32.6 7.1 16 17.2 SW 20 37 11 20 1007.6 1003.3 0.0
21/05:30pm 37.6 32.3 6.6 15 17.6 WSW 24 39 13 21 1007.4 1003.1 0.0
21/05:00pm 38.2 32.7 6.0 14 18.2 WSW 24 37 13 20 1007.2 1002.8 0.0
21/04:30pm 37.9 33.2 7.7 16 17.5 W 22 32 12 17 1007.1 1002.7 0.0
21/04:00pm 38.9 35.5 7.6 15 18.2 W 15 30 8 16 1007.2 1002.8 0.0
21/03:30pm 38.4 33.8 8.1 16 17.6 WSW 22 33 12 18 1007.5 1003.2 0.0
21/03:00pm 37.7 33.4 9.3 18 16.8 W 22 37 12 20 1007.7 1003.4 0.0
21/02:30pm 37.6 33.1 10.0 19 16.5 WSW 24 39 13 21 1007.9 1003.6 0.0
21/02:00pm 38.2 34.4 11.3 20 16.4 WSW 22 37 12 20 1008.3 1003.9 0.0
21/01:30pm 38.0 34.6 10.4 19 16.6 WNW 19 35 10 19 1008.4 1004.0 0.0
21/01:00pm 36.4 33.8 13.2 25 14.5 WNW 19 30 10 16 1008.8 1004.4 0.0
21/12:30pm 37.0 34.4 13.7 25 14.6 W 20 32 11 17 1009.1 1004.8 0.0
21/12:00pm 36.3 33.9 12.5 24 14.7 W 17 24 9 13 1009.5 1005.2 0.0
21/11:30am 37.1 35.3 13.2 24 14.9 WNW 15 28 8 15 1009.8 1005.5 0.0
21/11:00am 36.3 33.9 12.5 24 14.7 NW 17 39 9 21 1010.0 1005.7 0.0
21/10:30am 35.5 32.5 11.8 24 14.4 N 19 30 10 16 1010.2 1005.9 0.0
21/10:00am 34.5 31.0 12.2 26 13.6 NNW 22 30 12 16 1010.5 1006.1 0.0
21/09:30am 34.1 30.1 11.9 26 13.4 N 24 33 13 18 1010.6 1006.2 0.0
21/09:00am 33.2 29.4 11.1 26 13.2 N 22 32 12 17 1010.6 1006.2 0.0
21/08:30am 31.8 26.9 9.9 26 12.7 NNE 26 33 14 18 1010.7 1006.3 0.0
21/08:00am 31.3 27.0 9.5 26 12.6 NNE 22 32 12 17 1010.6 1006.2 0.0
21/07:30am 30.5 26.9 9.9 28 11.9 NNE 19 28 10 15 1010.5 1006.1 0.0
21/07:00am 29.3 27.3 11.4 33 10.6 NNE 13 17 7 9 1010.4 1006.0 0.0
21/06:30am 27.7 26.6 12.1 38 9.2 NE 9 13 5 7 1010.2 1005.9 0.0
21/06:00am 26.7 25.6 13.1 43 8.2 ENE 11 15 6 8 1009.8 1005.5 0.0
21/05:30am 26.2 25.2 13.3 45 7.7 ENE 11 13 6 7 1009.7 1005.4 0.0
21/05:00am 26.1 25.0 13.2 44 7.7 NE 11 13 6 7 1009.4 1005.1 0.0
21/04:30am 26.5 25.7 12.9 43 8.1 ENE 9 13 5 7 1009.2 1004.9 0.0
21/04:00am 27.1 26.1 12.3 39 8.8 E 9 13 5 7 1009.2 1004.9 0.0
21/03:30am 27.2 26.6 12.4 40 8.8 ESE 7 11 4 6 1009.0 1004.6 0.0
21/03:00am 27.6 26.3 12.4 39 9.1 ESE 11 15 6 8 1008.8 1004.4 0.0
21/02:30am 28.1 26.8 12.5 38 9.3 ESE 11 15 6 8 1008.8 1004.4 0.0
21/02:00am 28.6 27.0 12.9 38 9.5 ESE 13 15 7 8 1008.8 1004.4 0.0
21/01:30am 28.9 27.8 13.2 38 9.5 ESE 11 13 6 7 1008.9 1004.5 0.0
21/01:00am 29.4 28.2 14.0 39 9.5 E 13 17 7 9 1008.9 1004.5 0.0
21/12:30am 29.7 28.2 14.3 39 9.5 E 15 22 8 12 1009.0 1004.6 0.0
21/12:00am 29.9 28.6 14.8 39 9.4 ENE 15 20 8 11 1009.1 1004.8 0.0
 
Date/Time
WST
Temp
°C
App
Temp
°C
Dew
Point
°C
Rel
Hum
%
Delta-T
°C
Wind Press
QNH
hPa
Press
MSL
hPa
Rain since
9am
mm
Dir  Spd
km/h
Gust
km/h
Spd
kts
Gust
kts
20/11:30pm 29.9 28.6 14.8 39 9.4 E 15 20 8 11 1009.4 1005.1 0.0
20/11:00pm 30.1 29.3 15.0 40 9.4 E 13 17 7 9 1009.6 1005.3 0.0
20/10:30pm 30.2 30.2 15.1 40 9.4 ESE 9 11 5 6 1009.8 1005.5 0.0
20/10:00pm 30.6 30.2 15.1 39 9.7 ESE 11 15 6 8 1009.9 1005.6 0.0
20/09:30pm 31.0 30.2 15.0 38 10.0 SE 13 17 7 9 1009.8 1005.5 0.0
20/09:00pm 32.0 32.3 15.1 36 10.7 E 7 9 4 5 1009.7 1005.4 0.0
20/08:30pm 32.2 33.8 14.8 35 10.9 CALM 0 0 0 0 1009.5 1005.2 0.0
20/08:00pm 32.6 32.8 14.2 32 11.5 SSE 6 7 3 4 1009.4 1005.1 0.0
20/07:30pm 32.6 32.8 14.7 34 11.2 S 7 11 4 6 1009.0 1004.6 0.0
20/07:00pm 32.4 30.0 14.5 33 11.2 SW 20 26 11 14 1009.1 1004.8 0.0
20/06:30pm 31.9 28.2 15.0 36 10.6 SW 28 41 15 22 1009.1 1004.8 0.0
20/06:29pm 31.8 28.1 14.9 36 10.6 SW 28 41 15 22 1009.0 1004.6 0.0
20/06:00pm 34.5 33.5 12.2 26 13.6 NNE 9 13 5 7 1008.7 1004.3 0.0
20/05:30pm 34.6 33.0 11.7 25 13.8 NNE 11 15 6 8 1008.6 1004.2 0.0
20/05:00pm 34.7 33.2 11.8 25 13.9 NE 11 19 6 10 1008.1 1003.8 0.0
20/04:30pm 35.5 34.6 11.2 23 14.6 SW 7 15 4 8 1008.3 1003.9 0.0
20/04:00pm 35.3 34.3 11.0 23 14.6 NW 7 17 4 9 1008.4 1004.0 0.0
20/03:30pm 35.4 34.1 11.1 23 14.6 NNE 9 17 5 9 1008.7 1004.3 0.0
20/03:00pm 34.7 33.0 11.2 24 14.1 N 11 19 6 10 1009.0 1004.6 0.0
20/02:30pm 35.1 32.9 12.1 25 14.0 N 15 20 8 11 1009.3 1005.0 0.0
20/02:00pm 34.8 32.9 11.9 25 13.9 N 13 26 7 14 1009.8 1005.5 0.0
20/01:30pm 34.2 32.7 12.0 26 13.5 NNE 11 24 6 13 1010.1 1005.8 0.0
20/01:00pm 34.5 31.4 12.2 26 13.6 NNW 20 32 11 17 1010.7 1006.3 0.0
20/12:30pm 33.3 30.8 11.2 26 13.2 NNW 15 28 8 15 1011.0 1006.7 0.0
20/12:00pm 32.6 30.1 11.2 27 12.8 NNE 15 28 8 15 1011.4 1007.1 0.0
20/11:30am 32.2 29.2 10.8 27 12.6 NNE 17 28 9 15 1011.8 1007.5 0.0
20/11:00am 31.5 28.3 11.3 29 12.0 NE 19 28 10 15 1012.1 1007.8 0.0

Other formats

Comma delimited format used in spreadsheet applications
http://www.bom.gov.au/fwo/IDW60801/IDW60801.94430.axf

JavaScript Object Notation format (JSON) in row-major order
http://www.bom.gov.au/fwo/IDW60801/IDW60801.94430.json

Data quality

Most of these data are generated automatically and are frequently updated. Quality checks on data are not normally performed. It is possible for incorrect values to appear. Refer to information at About Latest Weather Observations and please check the disclaimer before using these data.